createdAt,value
2019-03-26T00:00:23.277Z,36.17
2019-03-26T00:02:54.289Z,43.67
2019-03-26T00:05:25.314Z,35.37
2019-03-26T00:07:56.357Z,36.03
2019-03-26T00:10:27.421Z,37.07
2019-03-26T00:12:58.491Z,38.03
2019-03-26T00:15:29.455Z,36.07
2019-03-26T00:18:00.443Z,35.23
2019-03-26T00:20:31.519Z,37.30
2019-03-26T00:23:02.559Z,41.87
2019-03-26T00:25:33.570Z,44.53
2019-03-26T00:28:05.670Z,37.33
2019-03-26T00:30:36.638Z,35.20
2019-03-26T00:33:07.659Z,35.43
2019-03-26T00:35:38.672Z,35.00
2019-03-26T00:38:09.754Z,43.50
2019-03-26T00:40:40.691Z,38.07
2019-03-26T00:43:11.702Z,39.90
2019-03-26T00:45:42.780Z,38.83
2019-03-26T00:48:13.799Z,39.17
2019-03-26T00:50:44.883Z,40.97
2019-03-26T00:53:15.857Z,40.33
2019-03-26T00:55:47.320Z,36.70
2019-03-26T00:58:18.832Z,42.40
2019-03-26T01:00:49.876Z,38.10
2019-03-26T01:03:20.892Z,45.17
2019-03-26T01:05:52.316Z,39.93
2019-03-26T01:08:23.403Z,44.73
2019-03-26T01:10:54.682Z,42.17
2019-03-26T01:13:25.779Z,42.50
2019-03-26T01:15:56.762Z,39.03
2019-03-26T01:18:27.833Z,43.23
2019-03-26T01:20:58.830Z,40.93
2019-03-26T01:23:29.866Z,36.87
2019-03-26T01:26:00.860Z,42.40
2019-03-26T01:28:31.944Z,37.17
2019-03-26T01:31:03.258Z,47.27
2019-03-26T01:33:34.393Z,43.80
2019-03-26T01:36:05.503Z,42.53
2019-03-26T01:38:36.540Z,43.83
2019-03-26T01:41:07.647Z,48.27
2019-03-26T01:43:38.793Z,44.27
2019-03-26T01:46:09.803Z,42.63
2019-03-26T01:48:41.193Z,45.87
2019-03-26T01:51:12.179Z,44.97
2019-03-26T01:53:43.176Z,42.57
2019-03-26T01:56:14.240Z,43.17
2019-03-26T01:58:45.317Z,47.97
2019-03-26T02:01:16.423Z,43.03
2019-03-26T02:03:47.462Z,38.90
2019-03-26T02:06:18.545Z,37.40
2019-03-26T02:08:49.573Z,45.30
2019-03-26T02:11:20.535Z,46.47
2019-03-26T02:13:51.544Z,46.40
2019-03-26T02:16:22.645Z,39.43
2019-03-26T02:18:54.657Z,45.73
2019-03-26T02:21:25.766Z,43.63
2019-03-26T02:23:56.844Z,43.73
2019-03-26T02:26:28.011Z,42.03
2019-03-26T02:28:59.176Z,39.77
2019-03-26T02:31:30.217Z,45.27
2019-03-26T02:34:01.335Z,45.43
2019-03-26T02:36:32.563Z,40.47
2019-03-26T02:39:05.185Z,43.93
2019-03-26T02:41:38.128Z,45.97
2019-03-26T02:44:09.216Z,40.63
2019-03-26T02:46:40.288Z,44.93
2019-03-26T02:49:11.289Z,45.17
2019-03-26T02:51:42.262Z,42.83
2019-03-26T02:54:13.278Z,51.23
2019-03-26T02:56:44.335Z,42.17
2019-03-26T02:59:15.590Z,44.50
2019-03-26T03:01:46.632Z,39.33
2019-03-26T03:04:17.651Z,40.67
2019-03-26T03:06:48.685Z,46.73
2019-03-26T03:09:20.021Z,41.50
2019-03-26T03:11:51.125Z,39.33
2019-03-26T03:14:22.202Z,46.97
2019-03-26T03:16:53.322Z,45.80
2019-03-26T03:19:24.314Z,42.07
2019-03-26T03:21:55.374Z,46.00
2019-03-26T03:24:26.352Z,40.00
2019-03-26T03:26:57.329Z,46.43
2019-03-26T03:29:29.538Z,43.97
2019-03-26T03:32:00.558Z,46.50
2019-03-26T03:34:31.919Z,36.97
2019-03-26T03:37:02.976Z,41.63
2019-03-26T03:39:34.063Z,39.27
2019-03-26T03:42:05.206Z,42.17
2019-03-26T03:44:36.358Z,39.83
2019-03-26T03:47:07.821Z,38.47
2019-03-26T03:49:39.155Z,39.70
2019-03-26T03:52:12.019Z,41.30
2019-03-26T03:54:44.865Z,41.67
2019-03-26T03:57:17.999Z,36.67
2019-03-26T03:59:49.196Z,39.40
2019-03-26T04:02:20.258Z,42.77
2019-03-26T04:04:51.345Z,41.93
2019-03-26T04:07:22.400Z,40.17
2019-03-26T04:09:53.403Z,41.80
2019-03-26T04:12:24.354Z,35.90
2019-03-26T04:14:55.434Z,37.80
2019-03-26T04:17:26.466Z,37.70
2019-03-26T04:19:57.436Z,38.43
2019-03-26T04:22:28.407Z,37.17
2019-03-26T04:24:59.449Z,41.23
2019-03-26T04:27:30.451Z,40.77
2019-03-26T04:30:01.470Z,36.83
2019-03-26T04:32:32.525Z,36.23
2019-03-26T04:35:03.511Z,39.20
2019-03-26T04:37:34.580Z,37.23
2019-03-26T04:40:05.761Z,39.70
2019-03-26T04:42:36.831Z,38.33
2019-03-26T04:45:08.026Z,45.60
2019-03-26T04:47:39.025Z,42.27
2019-03-26T04:50:10.049Z,44.60
2019-03-26T04:52:41.133Z,44.23
2019-03-26T04:55:12.154Z,44.87
2019-03-26T04:57:43.150Z,37.63
2019-03-26T05:00:14.659Z,43.13
2019-03-26T05:02:45.745Z,37.00
2019-03-26T05:05:16.985Z,37.40
2019-03-26T05:07:48.091Z,35.80
2019-03-26T05:10:19.234Z,44.53
2019-03-26T05:12:50.229Z,40.30
2019-03-26T05:15:21.298Z,42.00
2019-03-26T05:17:52.366Z,34.83
2019-03-26T05:20:24.968Z,36.40
2019-03-26T05:22:56.037Z,36.07
2019-03-26T05:25:26.992Z,35.93
2019-03-26T05:27:57.964Z,38.43
2019-03-26T05:30:28.923Z,39.40
2019-03-26T05:32:59.927Z,38.57
2019-03-26T05:35:30.888Z,40.50
2019-03-26T05:38:01.904Z,35.80
2019-03-26T05:40:32.936Z,39.40
2019-03-26T05:43:04.066Z,49.27
2019-03-26T05:45:35.013Z,38.90
2019-03-26T05:48:06.038Z,34.40
2019-03-26T05:50:37.082Z,37.57
2019-03-26T05:53:08.187Z,43.17
2019-03-26T05:55:39.232Z,38.63
2019-03-26T05:58:10.246Z,41.20
2019-03-26T06:00:41.400Z,43.13
2019-03-26T06:03:12.424Z,44.33
2019-03-26T06:05:43.672Z,40.23
2019-03-26T06:08:14.717Z,36.13
2019-03-26T06:10:45.825Z,39.27
2019-03-26T06:13:16.833Z,42.13
2019-03-26T06:15:47.908Z,34.50
2019-03-26T06:18:18.948Z,40.53
2019-03-26T06:20:50.062Z,38.90
2019-03-26T06:23:21.096Z,34.93
2019-03-26T06:25:52.140Z,41.00
2019-03-26T06:28:23.171Z,45.00
2019-03-26T06:30:54.213Z,36.57
2019-03-26T06:33:25.180Z,37.20
2019-03-26T06:35:56.169Z,35.43
2019-03-26T06:38:27.269Z,42.93
2019-03-26T06:40:58.372Z,34.10
2019-03-26T06:43:29.513Z,33.33
2019-03-26T06:46:00.513Z,44.80
2019-03-26T06:48:32.559Z,39.00
2019-03-26T06:51:03.553Z,63.73
2019-03-26T06:53:34.617Z,39.90
2019-03-26T06:56:05.702Z,37.43
2019-03-26T06:58:37.018Z,40.83
2019-03-26T07:01:08.246Z,37.20
2019-03-26T07:03:39.326Z,34.00
2019-03-26T07:06:11.288Z,55.07
2019-03-26T07:08:42.363Z,50.10
2019-03-26T07:11:13.373Z,58.83
2019-03-26T07:13:44.496Z,37.83
2019-03-26T07:16:15.731Z,53.83
2019-03-26T07:18:46.715Z,33.97
2019-03-26T07:21:17.716Z,38.70
2019-03-26T07:23:48.754Z,34.43
2019-03-26T07:26:19.734Z,41.30
2019-03-26T07:28:50.753Z,35.53
2019-03-26T07:31:21.805Z,30.87
2019-03-26T07:33:52.804Z,30.77
2019-03-26T07:36:23.761Z,30.60
2019-03-26T07:38:54.845Z,38.63
2019-03-26T07:41:26.878Z,43.90
2019-03-26T07:43:57.982Z,29.60
2019-03-26T07:46:29.051Z,32.77
2019-03-26T07:49:00.077Z,36.37
2019-03-26T07:51:31.134Z,32.97
2019-03-26T07:54:02.309Z,31.77
2019-03-26T07:56:33.289Z,24.87
2019-03-26T07:59:04.327Z,19.57
2019-03-26T08:01:35.373Z,21.90
2019-03-26T08:04:07.466Z,18.70
2019-03-26T08:06:38.873Z,28.17
2019-03-26T08:09:09.873Z,23.13
2019-03-26T08:11:40.786Z,21.33
2019-03-26T08:14:11.783Z,42.80
2019-03-26T08:16:42.740Z,15.33
2019-03-26T08:19:14.072Z,12.67
2019-03-26T08:21:45.378Z,26.10
2019-03-26T08:24:16.448Z,15.43
2019-03-26T08:26:47.432Z,16.73
2019-03-26T08:29:18.389Z,20.27
2019-03-26T08:31:49.369Z,15.40
2019-03-26T08:34:20.318Z,19.03
2019-03-26T08:36:51.330Z,19.57
2019-03-26T08:39:22.368Z,15.50
2019-03-26T08:41:53.451Z,10.93
2019-03-26T08:44:24.625Z,9.20
2019-03-26T08:46:55.705Z,9.57
2019-03-26T08:49:30.549Z,15.93
2019-03-26T08:51:59.567Z,14.50
2019-03-26T08:54:32.072Z,14.40
2019-03-26T08:57:03.066Z,12.83
2019-03-26T08:59:34.060Z,14.93
2019-03-26T09:02:05.195Z,10.47
2019-03-26T09:04:37.191Z,9.33
2019-03-26T09:07:10.954Z,10.60
2019-03-26T09:09:40.919Z,5.83
2019-03-26T09:12:12.013Z,12.90
2019-03-26T09:14:43.047Z,11.43
2019-03-26T09:17:14.077Z,14.30
2019-03-26T09:19:45.009Z,40.03
2019-03-26T09:22:15.954Z,7.13
2019-03-26T09:24:46.961Z,16.57
2019-03-26T09:27:17.898Z,10.33
2019-03-26T09:29:48.924Z,18.90
2019-03-26T09:32:19.867Z,8.07
2019-03-26T09:34:50.920Z,18.47
2019-03-26T09:37:21.883Z,15.07
2019-03-26T09:39:52.873Z,40.37
2019-03-26T09:42:23.874Z,9.53
2019-03-26T09:44:56.643Z,9.37
2019-03-26T09:47:27.751Z,55.27
2019-03-26T09:49:58.878Z,14.23
2019-03-26T09:52:29.945Z,8.03
2019-03-26T09:55:00.885Z,16.57
2019-03-26T09:57:32.058Z,8.27
2019-03-26T10:00:03.084Z,8.53
2019-03-26T10:02:34.187Z,8.60
2019-03-26T10:05:05.472Z,7.70
2019-03-26T10:07:36.475Z,9.70
2019-03-26T10:10:08.379Z,10.70
2019-03-26T10:12:39.437Z,18.57
2019-03-26T10:15:10.509Z,16.80
2019-03-26T10:17:41.933Z,23.37
2019-03-26T10:20:14.068Z,20.17
2019-03-26T10:22:45.153Z,17.67
2019-03-26T10:25:16.599Z,17.73
2019-03-26T10:27:47.903Z,19.23
2019-03-26T10:30:24.929Z,15.10
2019-03-26T10:32:56.146Z,22.47
2019-03-26T10:35:27.235Z,15.53
2019-03-26T10:37:58.242Z,22.67
2019-03-26T10:40:33.170Z,15.27
2019-03-26T10:43:04.566Z,18.30
2019-03-26T10:45:36.105Z,15.33
2019-03-26T10:48:07.219Z,12.03
2019-03-26T10:50:38.251Z,11.93
2019-03-26T10:53:09.350Z,20.13
2019-03-26T10:55:40.427Z,12.33
2019-03-26T10:58:11.515Z,18.53
2019-03-26T11:00:42.494Z,16.37
2019-03-26T11:03:13.515Z,11.23
2019-03-26T11:05:44.597Z,14.67
2019-03-26T11:08:15.807Z,10.23
2019-03-26T11:10:46.859Z,43.23
2019-03-26T11:13:17.881Z,11.47
2019-03-26T11:15:49.092Z,10.60
2019-03-26T11:18:20.283Z,12.77
2019-03-26T11:21:02.299Z,11.10
2019-03-26T11:23:25.458Z,17.10
2019-03-26T11:25:56.542Z,11.27
2019-03-26T11:28:27.649Z,11.77
2019-03-26T11:30:58.842Z,11.27
2019-03-26T11:33:30.025Z,12.43
2019-03-26T11:36:01.230Z,16.67
2019-03-26T11:38:32.576Z,26.60
2019-03-26T11:41:03.669Z,19.80
2019-03-26T11:43:35.035Z,19.97
2019-03-26T11:46:05.960Z,13.03
2019-03-26T11:48:37.845Z,15.50
2019-03-26T11:51:08.986Z,23.40
2019-03-26T11:53:40.027Z,13.97
2019-03-26T11:56:10.980Z,14.87
2019-03-26T11:58:42.022Z,9.80
2019-03-26T12:01:13.004Z,26.13
2019-03-26T12:03:44.132Z,16.37
2019-03-26T12:06:15.256Z,10.03
2019-03-26T12:08:46.398Z,16.03
2019-03-26T12:11:17.434Z,11.57
2019-03-26T12:13:48.557Z,13.67
2019-03-26T12:16:20.642Z,16.17
2019-03-26T12:18:51.682Z,14.43
2019-03-26T12:21:23.060Z,14.63
2019-03-26T12:23:54.148Z,12.43
2019-03-26T12:26:25.194Z,13.53
2019-03-26T12:28:56.221Z,15.47
2019-03-26T12:31:29.670Z,11.90
2019-03-26T12:34:01.053Z,9.80
2019-03-26T12:36:39.737Z,21.00
2019-03-26T12:39:06.603Z,12.10
2019-03-26T12:41:38.591Z,13.27
2019-03-26T12:44:09.743Z,9.57
2019-03-26T12:46:40.753Z,8.90
2019-03-26T12:49:11.868Z,8.87
2019-03-26T12:51:43.111Z,7.53
2019-03-26T12:54:14.256Z,6.33
2019-03-26T12:56:45.501Z,9.30
2019-03-26T12:59:16.590Z,8.70
2019-03-26T13:01:47.834Z,7.20
2019-03-26T13:04:18.794Z,9.37
2019-03-26T13:06:50.269Z,14.83
2019-03-26T13:09:21.291Z,10.53
2019-03-26T13:11:52.361Z,9.60
2019-03-26T13:14:23.385Z,9.47
2019-03-26T13:16:54.550Z,9.23
2019-03-26T13:19:25.583Z,9.03
2019-03-26T13:21:56.645Z,10.43
2019-03-26T13:24:27.606Z,8.67
2019-03-26T13:26:58.806Z,10.87
2019-03-26T13:29:29.775Z,38.47
2019-03-26T13:32:00.809Z,8.47
2019-03-26T13:34:31.782Z,9.80
2019-03-26T13:37:02.798Z,7.70
2019-03-26T13:39:33.936Z,10.17
2019-03-26T13:42:04.999Z,8.27
2019-03-26T13:44:36.176Z,15.17
2019-03-26T13:47:07.240Z,8.33
2019-03-26T13:49:38.200Z,11.67
2019-03-26T13:52:09.207Z,7.53
2019-03-26T13:54:40.136Z,7.83
2019-03-26T13:57:11.294Z,6.37
2019-03-26T13:59:42.387Z,14.53
2019-03-26T14:02:13.532Z,22.83
2019-03-26T14:04:44.548Z,9.80
2019-03-26T14:07:15.572Z,12.10
2019-03-26T14:09:46.582Z,18.17
2019-03-26T14:12:17.642Z,7.87
2019-03-26T14:14:48.650Z,24.70
2019-03-26T14:17:19.676Z,9.90
2019-03-26T14:19:50.744Z,18.87
2019-03-26T14:22:21.894Z,28.20
2019-03-26T14:24:52.859Z,8.87
2019-03-26T14:27:23.877Z,11.37
2019-03-26T14:29:54.889Z,15.17
2019-03-26T14:32:25.946Z,8.30
2019-03-26T14:34:56.951Z,6.20
2019-03-26T14:37:28.030Z,6.43
2019-03-26T14:39:59.014Z,3.30
2019-03-26T14:42:29.989Z,11.33
2019-03-26T14:45:01.054Z,4.53
2019-03-26T14:47:32.144Z,7.07
2019-03-26T14:50:03.320Z,5.87
2019-03-26T14:52:34.393Z,4.37
2019-03-26T14:55:05.972Z,8.80
2019-03-26T14:57:37.137Z,7.07
2019-03-26T15:00:09.159Z,13.20
2019-03-26T15:02:41.792Z,5.50
2019-03-26T15:05:13.083Z,9.57
2019-03-26T15:07:44.157Z,29.43
2019-03-26T15:10:15.403Z,7.97
2019-03-26T15:12:46.422Z,9.57
2019-03-26T15:15:17.620Z,8.17
2019-03-26T15:17:48.703Z,8.20
2019-03-26T15:20:19.795Z,9.20
2019-03-26T15:22:50.865Z,26.10
2019-03-26T15:25:22.148Z,10.00
2019-03-26T15:27:53.116Z,10.17
2019-03-26T15:30:25.028Z,9.50
2019-03-26T15:32:56.032Z,11.97
2019-03-26T15:35:27.014Z,12.30
2019-03-26T15:37:58.117Z,26.40
2019-03-26T15:40:30.049Z,11.63
2019-03-26T15:43:01.102Z,25.27
2019-03-26T15:45:32.157Z,29.20
2019-03-26T15:48:03.252Z,16.10
2019-03-26T15:50:47.167Z,21.17
2019-03-26T15:53:18.209Z,10.80
2019-03-26T15:55:49.438Z,32.20
2019-03-26T15:58:20.553Z,9.23
2019-03-26T16:00:51.645Z,26.77
2019-03-26T16:03:22.955Z,16.93
2019-03-26T16:05:54.915Z,16.07
2019-03-26T16:08:25.903Z,13.13
2019-03-26T16:10:56.898Z,17.10
2019-03-26T16:13:28.913Z,16.60
2019-03-26T16:16:00.029Z,13.73
2019-03-26T16:18:31.062Z,13.87
2019-03-26T16:21:02.147Z,14.23
2019-03-26T16:23:33.288Z,14.27
2019-03-26T16:26:04.301Z,9.07
2019-03-26T16:28:35.436Z,7.50
2019-03-26T16:31:06.493Z,14.27
2019-03-26T16:33:37.492Z,26.17
2019-03-26T16:36:08.682Z,12.90
2019-03-26T16:38:39.788Z,14.77
2019-03-26T16:41:10.947Z,15.37
2019-03-26T16:43:42.040Z,11.17
2019-03-26T16:46:13.036Z,7.67
2019-03-26T16:48:44.127Z,17.77
2019-03-26T16:51:16.136Z,15.32
2019-03-26T16:53:47.156Z,16.90
2019-03-26T16:56:18.202Z,19.80
2019-03-26T16:58:49.395Z,13.20
2019-03-26T17:01:20.474Z,9.57
2019-03-26T17:03:51.580Z,9.57
2019-03-26T17:06:22.555Z,12.57
2019-03-26T17:08:53.713Z,8.97
2019-03-26T17:11:24.683Z,13.03
2019-03-26T17:13:55.855Z,18.30
2019-03-26T17:16:27.066Z,17.90
2019-03-26T17:18:58.221Z,10.07
2019-03-26T17:21:29.335Z,14.77
2019-03-26T17:24:00.453Z,15.00
2019-03-26T17:26:31.629Z,13.37
2019-03-26T17:29:02.841Z,13.17
2019-03-26T17:31:33.999Z,15.87
2019-03-26T17:34:05.179Z,17.40
2019-03-26T17:36:36.263Z,18.20
2019-03-26T17:39:09.250Z,14.70
2019-03-26T17:41:40.397Z,14.37
2019-03-26T17:44:11.475Z,10.07
2019-03-26T17:46:42.541Z,18.27
2019-03-26T17:49:13.654Z,14.90
2019-03-26T17:51:44.720Z,13.50
2019-03-26T17:54:15.819Z,13.40
2019-03-26T17:56:47.477Z,10.93
2019-03-26T17:59:18.634Z,11.80
2019-03-26T18:01:49.672Z,17.50
2019-03-26T18:04:20.873Z,15.53
2019-03-26T18:06:51.839Z,16.57
2019-03-26T18:09:22.900Z,11.03
2019-03-26T18:11:53.997Z,14.83
2019-03-26T18:14:25.068Z,19.17
2019-03-26T18:16:56.171Z,17.20
2019-03-26T18:19:27.158Z,16.27
2019-03-26T18:21:58.952Z,14.07
2019-03-26T18:24:30.032Z,12.83
2019-03-26T18:27:01.057Z,17.40
2019-03-26T18:29:32.113Z,13.27
2019-03-26T18:32:03.209Z,16.27
2019-03-26T18:34:34.291Z,12.80
2019-03-26T18:37:05.704Z,12.00
2019-03-26T18:39:36.917Z,14.80
2019-03-26T18:42:08.124Z,18.03
2019-03-26T18:44:39.290Z,18.30
2019-03-26T18:47:10.381Z,11.30
2019-03-26T18:49:41.621Z,17.53
2019-03-26T18:52:12.767Z,12.33
2019-03-26T18:54:44.213Z,26.87
2019-03-26T18:57:15.409Z,21.63
2019-03-26T18:59:46.501Z,17.13
2019-03-26T19:02:18.642Z,12.43
2019-03-26T19:04:49.749Z,20.23
2019-03-26T19:07:20.861Z,13.80
2019-03-26T19:09:51.992Z,13.47
2019-03-26T19:12:23.305Z,18.40
2019-03-26T19:14:54.492Z,20.07
2019-03-26T19:17:25.664Z,23.27
2019-03-26T19:19:58.379Z,51.07
2019-03-26T19:22:30.528Z,15.63
2019-03-26T19:25:01.757Z,14.10
2019-03-26T19:27:32.952Z,22.83
2019-03-26T19:30:04.231Z,20.30
2019-03-26T19:32:35.373Z,17.67
2019-03-26T19:35:06.716Z,14.07
2019-03-26T19:37:37.916Z,11.17
2019-03-26T19:40:09.246Z,17.60
2019-03-26T19:42:40.361Z,12.10
2019-03-26T19:45:11.828Z,18.33
2019-03-26T19:47:43.528Z,12.43
2019-03-26T19:50:15.544Z,20.90
2019-03-26T19:52:46.774Z,14.43
2019-03-26T19:55:17.898Z,19.23
2019-03-26T19:57:49.060Z,21.53
2019-03-26T20:00:20.511Z,18.57
2019-03-26T20:02:51.585Z,19.33
2019-03-26T20:05:22.712Z,18.97
2019-03-26T20:07:53.803Z,23.00
2019-03-26T20:10:24.878Z,30.63
2019-03-26T20:12:56.061Z,60.93
2019-03-26T20:15:27.343Z,21.40
2019-03-26T20:17:58.395Z,17.20
2019-03-26T20:20:29.423Z,16.97
2019-03-26T20:23:00.423Z,21.57
2019-03-26T20:25:31.537Z,22.73
2019-03-26T20:28:02.566Z,21.17
2019-03-26T20:30:33.663Z,16.73
2019-03-26T20:33:04.662Z,15.17
2019-03-26T20:35:35.810Z,18.20
2019-03-26T20:38:06.830Z,16.63
2019-03-26T20:40:37.999Z,22.23
2019-03-26T20:43:09.183Z,13.67
2019-03-26T20:45:40.434Z,13.60
2019-03-26T20:48:11.568Z,17.60
2019-03-26T20:50:43.237Z,16.83
2019-03-26T20:53:14.279Z,14.60
2019-03-26T20:55:54.359Z,19.63
2019-03-26T20:58:18.249Z,17.33
2019-03-26T21:00:49.446Z,11.93
2019-03-26T21:03:20.637Z,10.67
2019-03-26T21:05:51.838Z,16.87
2019-03-26T21:08:23.942Z,9.63
2019-03-26T21:10:56.127Z,8.87
2019-03-26T21:13:27.286Z,10.90
2019-03-26T21:15:58.629Z,14.43
2019-03-26T21:18:29.714Z,11.63
2019-03-26T21:21:00.830Z,11.40
2019-03-26T21:23:32.035Z,11.00
2019-03-26T21:26:03.226Z,9.07
2019-03-26T21:28:34.299Z,9.67
2019-03-26T21:31:05.461Z,7.50
2019-03-26T21:33:36.571Z,10.53
2019-03-26T21:36:09.759Z,10.60
2019-03-26T21:38:42.627Z,9.87
2019-03-26T21:41:13.763Z,15.03
2019-03-26T21:43:44.894Z,13.80
2019-03-26T21:46:16.036Z,14.27
2019-03-26T21:48:47.060Z,13.20
2019-03-26T21:51:18.152Z,11.20
2019-03-26T21:53:49.218Z,12.23
2019-03-26T21:56:21.034Z,11.37
2019-03-26T21:58:52.203Z,13.53
2019-03-26T22:01:23.327Z,12.83
2019-03-26T22:03:54.760Z,16.03
2019-03-26T22:06:26.057Z,10.17
2019-03-26T22:08:57.513Z,10.57
2019-03-26T22:11:28.768Z,9.27
2019-03-26T22:14:02.629Z,12.10
2019-03-26T22:16:33.818Z,9.07
2019-03-26T22:19:04.949Z,11.43
2019-03-26T22:21:36.161Z,10.70
2019-03-26T22:24:07.278Z,14.67
2019-03-26T22:26:38.540Z,9.90
2019-03-26T22:29:09.647Z,9.13
2019-03-26T22:31:40.773Z,8.83
2019-03-26T22:34:11.955Z,10.23
2019-03-26T22:36:43.205Z,17.17
2019-03-26T22:39:14.399Z,10.77
2019-03-26T22:41:45.381Z,18.17
2019-03-26T22:44:16.436Z,10.80
2019-03-26T22:46:47.454Z,12.60
2019-03-26T22:49:18.518Z,16.43
2019-03-26T22:51:50.068Z,8.87
2019-03-26T22:54:21.022Z,10.27
2019-03-26T22:56:53.004Z,13.63
2019-03-26T22:59:24.938Z,10.03
2019-03-26T23:01:56.107Z,9.03
2019-03-26T23:04:27.063Z,13.03
2019-03-26T23:06:58.295Z,6.63
2019-03-26T23:09:29.282Z,9.43
2019-03-26T23:12:00.313Z,12.20
2019-03-26T23:14:43.976Z,9.83
2019-03-26T23:17:04.171Z,13.53
2019-03-26T23:19:35.160Z,9.13
2019-03-26T23:22:06.209Z,10.33
2019-03-26T23:24:37.257Z,13.30
2019-03-26T23:27:08.375Z,16.40
2019-03-26T23:29:39.531Z,9.30
2019-03-26T23:32:10.668Z,17.57
2019-03-26T23:34:41.748Z,9.27
2019-03-26T23:37:12.883Z,9.33
2019-03-26T23:39:44.021Z,10.93
2019-03-26T23:42:15.091Z,11.67
2019-03-26T23:44:57.851Z,9.87
2019-03-26T23:47:18.866Z,13.50
2019-03-26T23:49:49.850Z,11.57
2019-03-26T23:52:20.998Z,10.80
2019-03-26T23:54:52.016Z,9.17
2019-03-26T23:57:23.108Z,12.57
2019-03-26T23:59:54.124Z,12.67
